CYPR/YPR METAR and TAF weather

Enter ICAO airport designator
Station Type Date Time Source
CYPR METAR 2019/04/24 21:00 UTC NOAA

CYPR 242100Z AUTO 17008KT 130V200 9SM SCT020 SCT028 BKN038 07/05 A3045 RMK SLP314


Station Type Date Time Source
CYPR Decoded METAR 2019/04/24 21:00 UTC NOAA

Prince Rupert, B. C., Canada (CYPR) 54-18N 130-26W 34M
Apr 24, 2019 - 05:00 PM EDT / 2019.04.24 2100 UTC
Wind: from the S (170 degrees) at 9 MPH (8 KT) (direction variable):0
Visibility: 9 mile(s):0
Sky conditions: mostly cloudy
Temperature: 44 F (7 C)
Dew Point: 41 F (5 C)
Relative Humidity: 87%
Pressure (altimeter): 30.45 in. Hg (1031 hPa)
ob: CYPR 242100Z AUTO 17008KT 130V200 9SM SCT020 SCT028 BKN038 07/05 A3045 RMK SLP314
cycle: 21

Station Type Date Time Source
CYPR TAF 2019/04/24 19:39 UTC NOAA

TAF TAF CYPR 241838Z 2419/2507 16012KT P6SM SCT025 OVC050
TEMPO 2419/2507 5SM -SHRA BR BKN020 OVC040
RMK FCST BASED ON AUTO OBS. NXT FCST BY 250100Z

Example: see airport list